Elm Grove, Ohio
Current Conditions -  °F | °C
As of 7:34 PM on Thursday 27 Nov 2014 (Local Time) from KRZT Reporting Station
Light Snow Light Snow  
Wind Chill: 20°   Ceiling: 2600
Heat Index: 30°   Visibility: 5mi
Dew Point: 27°   Wind: 13mph
Humidity: 86%   Direction: 310°NW
Pressure: 30.33"   Gusts: 20mph
Location:  39.0491°N, 83.1454°W
Report Text: KRZT 280034Z AUTO 31011G17KT 5SM -SN SCT019 OVC026 M01/M03 A3033 RMK AO2
Loading
Personal Weather Stations






























Interactive Weather Map New forecast layout! Learn more

10-Day Weather Forecast

Advertisements
Track Severe Weather on mobile